KOXRKSDM

Guest
Details From KOXR - Oxnard
To KSDM - BROWN FLD MUNI
Flight Number -
Tags generated
Created
Modified
Stats Distance 152 nm / 282 km
Max Altitude 9,800 ft / 2,987 m
Waypoints 3
Social Downloads 0
Likes 0
Share VATSIM

Download

Looking for another format? Having issues loading an existing format? Contact us
Advertisement - Login to hide

Notes

Basic altitude profile: - Ascent Rate: 2500ft/min - Ascent Speed: 250kts - Cruise Altitude: 27000ft - Cruise Speed: 420kts - Descent Rate: 1500ft/min - Descent Speed: 250kts Options: - Use NATs: yes - Use PACOTS: yes - Use low airways: no - Use high airways: yes

Route

KOXR OCN KSDM

ID Type Via Altitude (ft/m) Position (lat/lon) Dist (leg/tot) Name
O KOXR APT - 0 / 0 34.20082 / -119.20723 - / 0 nm Oxnard
OCN VOR - 9,800 / 2,987 33.24064 / -117.41772 106 / 106 nm OCEANSIDE VORTAC
O KSDM APT - 0 / 0 32.57192 / -116.97991 45 / 152 nm BROWN FLD MUNI

Altitude Profile

Advertisement - Login to hide

KOXR

Details ICAO KOXR (OXR)
Name Oxnard
Region United States
Timezone America/Los_Angeles (UTC-7.0)
Stats Elevation 43 ft / 13 m (AMSL)
Location 34.200800° -119.207000°
Runways 1
Magnetic Variation 12.137° E

METAR

KOXR 182151Z 27012KT 10SM CLR 23/13 A3000 RMK AO2 SLP157 T02330128

Decode

TAF

TAF KOXR 181720Z 1818/1918 04008KT P6SM SKC FM182100 27010KT P6SM SKC FM190400 VRB03KT P6SM SKC FM191100 06006KT P6SM SKC FM191600 07012KT P6SM SKC

Decode

Departure Runways

ID Width Length Bearing (true/mag) Surface Threshold Overrun Markings Lighting
07 98 ft / 30 m 5,953 ft / 1,815 m 90.53° / 78.39° ASPHALT 0 ft / 0 m 0 ft / 0 m APP EDGE THRESHOLD
25 98 ft / 30 m 5,953 ft / 1,815 m 270.54° / 258.40° ASPHALT 1,378 ft / 420 m 0 ft / 0 m PREC-APP EDGE THRESHOLD MALSR

KSDM

Details ICAO KSDM (SDM)
Name BROWN FLD MUNI
Region United States
Timezone America/Los_Angeles (UTC-7.0)
Stats Elevation 524 ft / 160 m (AMSL)
Location 32.571800° -116.979000°
Runways 2
Magnetic Variation 11.378° E

METAR

KSDM 182153Z 29007G15KT 10SM CLR 28/06 A2996 RMK AO2 SLP141 T02780061

Decode

TAF

Not found

Destination Runways

ID Width Length Bearing (true/mag) Surface Threshold Overrun Markings Lighting
08L 151 ft / 46 m 7,960 ft / 2,426 m 95.63° / 84.25° ASPHALT 0 ft / 0 m 39 ft / 12 m APP CENTERLINE EDGE THRESHOLD
08R 75 ft / 23 m 4,886 ft / 1,489 m 95.63° / 84.25° ASPHALT 0 ft / 0 m 0 ft / 0 m VISUAL EDGE THRESHOLD
26L 75 ft / 23 m 4,886 ft / 1,489 m 275.64° / 264.26° ASPHALT 1,706 ft / 520 m 0 ft / 0 m VISUAL EDGE THRESHOLD
26R 151 ft / 46 m 7,960 ft / 2,426 m 275.64° / 264.27° ASPHALT 0 ft / 0 m 20 ft / 6 m APP CENTERLINE EDGE THRESHOLD

Popular Alternatives